KBOW/BOW METAR and TAF weather

Enter ICAO airport designator
Station Type Date Time Source
KBOW METAR 2022/06/27 17:50 UTC NOAA

KBOW 271750Z 19004KT 10SM SCT034 32/23 A3002


Station Type Date Time Source
KBOW Decoded METAR 2022/06/27 17:50 UTC NOAA

Bartow Municipal, FL, United States (KBOW) 27-57N 081-47W
Jun 27, 2022 - 01:50 PM EDT / 2022.06.27 1750 UTC
Wind: from the S (190 degrees) at 5 MPH (4 KT):0
Visibility: 10 mile(s):0
Sky conditions: partly cloudy
Temperature: 89 F (32 C)
Heat index: 96.8 F (36.0 C):1
Dew Point: 73 F (23 C)
Relative Humidity: 59%
Pressure (altimeter): 30.02 in. Hg (1016 hPa)
ob: KBOW 271750Z 19004KT 10SM SCT034 32/23 A3002
cycle: 18

Station Type Date Time Source
KBOW TAF UTC NOAA

Error!

Example: see airport list